Time;durP1;ratioP1;P1;durP2;ratioP2;P2;SDS_P1;SDS_P2;PMS_P1;PMS_P2;Temp;Humidity;BMP_temperature;BMP_pressure;BME280_temperature;BME280_humidity;BME280_pressure;Samples;Min_cycle;Max_cycle;Signal;HPM_P1;HPM_P2
2021/08/26 00:06:59;;;;;;;6.80;3.67;;;;;;;;;;5036141;28;20043;-60
2021/08/26 00:09:26;;;;;;;8.32;4.10;;;;;;;;;;5036449;28;20407;-60
2021/08/26 00:11:54;;;;;;;8.93;4.15;;;;;;;;;;5033772;28;20029;-60
2021/08/26 00:14:20;;;;;;;9.00;4.03;;;;;;;;;;5036169;28;20033;-60
2021/08/26 00:16:46;;;;;;;6.32;4.20;;;;;;;;;;5040756;28;20071;-60
2021/08/26 00:19:13;;;;;;;6.93;4.22;;;;;;;;;;5043290;28;20068;-60
2021/08/26 00:21:39;;;;;;;8.90;3.83;;;;;;;;;;5036225;28;20021;-61
2021/08/26 00:24:06;;;;;;;9.63;4.07;;;;;;;;;;5034585;28;20033;-60
2021/08/26 00:26:32;;;;;;;7.25;4.10;;;;;;;;;;5038771;28;20084;-60
2021/08/26 00:28:59;;;;;;;7.28;3.75;;;;;;;;;;5038508;28;20021;-60
2021/08/26 00:31:25;;;;;;;7.68;3.80;;;;;;;;;;5041186;28;20164;-60
2021/08/26 00:33:51;;;;;;;7.85;4.10;;;;;;;;;;5035679;28;20119;-60
2021/08/26 00:36:17;;;;;;;6.10;4.20;;;;;;;;;;5035826;28;20096;-60
2021/08/26 00:38:45;;;;;;;8.13;4.65;;;;;;;;;;5033006;28;20029;-60
2021/08/26 00:41:11;;;;;;;7.60;4.75;;;;;;;;;;5033795;28;20029;-60
2021/08/26 00:43:37;;;;;;;8.02;3.97;;;;;;;;;;5034881;28;20040;-60
2021/08/26 00:46:03;;;;;;;7.43;4.20;;;;;;;;;;5031911;28;20036;-60
2021/08/26 00:48:29;;;;;;;7.07;3.42;;;;;;;;;;5046609;28;20380;-60
2021/08/26 00:50:56;;;;;;;9.55;4.05;;;;;;;;;;5031231;28;20453;-60
2021/08/26 00:53:22;;;;;;;13.40;4.28;;;;;;;;;;5033945;28;20040;-60
2021/08/26 00:55:49;;;;;;;7.53;4.43;;;;;;;;;;5032112;28;20053;-60
2021/08/26 00:58:15;;;;;;;10.07;4.07;;;;;;;;;;5038401;28;20029;-60
2021/08/26 01:00:43;;;;;;;8.63;4.40;;;;;;;;;;5033419;28;20014;-60
2021/08/26 01:03:16;;;;;;;9.02;4.28;;;;;;;;;;5032380;28;20017;-60
2021/08/26 01:06:11;;;;;;;8.70;4.40;;;;;;;;;;5027712;28;20131;-60
2021/08/26 01:08:45;;;;;;;12.68;4.63;;;;;;;;;;5032068;28;20052;-60
2021/08/26 01:11:12;;;;;;;7.63;4.47;;;;;;;;;;5035316;28;20037;-60
2021/08/26 01:13:40;;;;;;;9.75;4.60;;;;;;;;;;5033543;28;20033;-60
2021/08/26 01:16:08;;;;;;;8.38;4.90;;;;;;;;;;5035368;28;20045;-60
2021/08/26 01:18:34;;;;;;;8.40;4.50;;;;;;;;;;5047922;28;20022;-60
2021/08/26 01:21:00;;;;;;;11.02;5.35;;;;;;;;;;5032938;28;20435;-60
2021/08/26 01:23:29;;;;;;;10.88;5.05;;;;;;;;;;5034598;28;20037;-60
2021/08/26 01:25:55;;;;;;;9.77;4.53;;;;;;;;;;5033291;28;20049;-60
2021/08/26 01:28:23;;;;;;;7.45;4.75;;;;;;;;;;5039885;28;20048;-60
2021/08/26 01:30:49;;;;;;;8.98;4.80;;;;;;;;;;5034883;28;20079;-60
2021/08/26 01:33:16;;;;;;;8.57;4.45;;;;;;;;;;5033231;28;20269;-60
2021/08/26 01:35:42;;;;;;;12.63;5.20;;;;;;;;;;5032723;28;20044;-60
2021/08/26 01:38:08;;;;;;;8.57;5.00;;;;;;;;;;5034238;28;20025;-60
2021/08/26 01:40:37;;;;;;;11.13;5.00;;;;;;;;;;5034690;28;20025;-59
2021/08/26 01:43:05;;;;;;;10.25;4.60;;;;;;;;;;5034235;28;20040;-59
2021/08/26 01:45:31;;;;;;;12.57;4.47;;;;;;;;;;5034251;28;20480;-59
2021/08/26 01:47:56;;;;;;;7.30;4.35;;;;;;;;;;5046273;28;20033;-59
2021/08/26 01:50:23;;;;;;;8.50;4.07;;;;;;;;;;5029833;28;20034;-59
2021/08/26 01:52:48;;;;;;;11.20;4.47;;;;;;;;;;5033013;28;20517;-59
2021/08/26 01:55:14;;;;;;;10.93;4.50;;;;;;;;;;5034766;28;20155;-59
2021/08/26 01:57:40;;;;;;;9.45;4.50;;;;;;;;;;5039775;28;20025;-59
2021/08/26 02:00:08;;;;;;;9.63;4.60;;;;;;;;;;5031646;28;20132;-59
2021/08/26 02:02:34;;;;;;;9.40;4.97;;;;;;;;;;5032816;28;20044;-59
2021/08/26 02:05:00;;;;;;;11.25;4.68;;;;;;;;;;5032922;28;20481;-59
2021/08/26 02:07:25;;;;;;;10.63;4.53;;;;;;;;;;5034097;28;20036;-59
2021/08/26 02:09:51;;;;;;;7.80;4.35;;;;;;;;;;5033985;28;20418;-59
2021/08/26 02:12:17;;;;;;;8.35;4.45;;;;;;;;;;5031738;28;20053;-59
2021/08/26 02:14:43;;;;;;;9.05;4.38;;;;;;;;;;5031707;28;20014;-59
2021/08/26 02:17:09;;;;;;;9.13;4.63;;;;;;;;;;5043650;28;20119;-59
2021/08/26 02:19:35;;;;;;;8.88;4.80;;;;;;;;;;5038259;28;20029;-59
2021/08/26 02:22:01;;;;;;;10.60;4.72;;;;;;;;;;5033850;28;20021;-59
2021/08/26 02:24:27;;;;;;;9.63;5.15;;;;;;;;;;5034027;28;20480;-59
2021/08/26 02:26:53;;;;;;;8.13;4.53;;;;;;;;;;5036349;28;20429;-59
2021/08/26 02:29:19;;;;;;;10.82;5.15;;;;;;;;;;5033794;28;20045;-59
2021/08/26 02:31:45;;;;;;;8.60;5.25;;;;;;;;;;5032298;28;20031;-59
2021/08/26 02:34:11;;;;;;;13.15;5.65;;;;;;;;;;5033543;28;20033;-59
2021/08/26 02:36:37;;;;;;;6.82;4.68;;;;;;;;;;5033142;28;20075;-59
2021/08/26 02:39:04;;;;;;;10.25;5.47;;;;;;;;;;5032454;28;20037;-59
2021/08/26 02:41:30;;;;;;;10.98;5.82;;;;;;;;;;5033689;28;20108;-60
2021/08/26 02:43:56;;;;;;;9.07;5.45;;;;;;;;;;5033937;28;20101;-59
2021/08/26 02:46:22;;;;;;;10.70;5.57;;;;;;;;;;5036126;28;20530;-59
2021/08/26 02:48:48;;;;;;;7.25;4.97;;;;;;;;;;5044376;28;20063;-59
2021/08/26 02:51:14;;;;;;;8.18;5.10;;;;;;;;;;5031918;28;20082;-59
2021/08/26 02:53:40;;;;;;;11.95;5.65;;;;;;;;;;5031247;28;20032;-60
2021/08/26 02:56:06;;;;;;;8.35;5.35;;;;;;;;;;5033604;28;20030;-59
2021/08/26 02:58:32;;;;;;;8.60;4.95;;;;;;;;;;5038571;28;20087;-59
2021/08/26 03:00:57;;;;;;;11.85;4.95;;;;;;;;;;5026405;28;20050;-59
2021/08/26 03:03:23;;;;;;;7.63;5.10;;;;;;;;;;5033772;28;20078;-59
2021/08/26 03:05:49;;;;;;;11.95;5.10;;;;;;;;;;5030885;28;20049;-59
2021/08/26 03:08:17;;;;;;;8.77;5.55;;;;;;;;;;5032200;28;20528;-60
2021/08/26 03:10:43;;;;;;;11.32;5.90;;;;;;;;;;5034055;28;20539;-59
2021/08/26 03:13:09;;;;;;;7.80;5.13;;;;;;;;;;5037109;28;20103;-60
2021/08/26 03:15:35;;;;;;;10.90;5.53;;;;;;;;;;5037626;28;20096;-68
2021/08/26 03:18:01;;;;;;;12.20;5.53;;;;;;;;;;5049606;28;20029;-68
2021/08/26 03:20:27;;;;;;;9.30;5.25;;;;;;;;;;5036439;28;20060;-70
2021/08/26 03:22:53;;;;;;;8.38;5.57;;;;;;;;;;5035312;28;20041;-68
2021/08/26 03:25:19;;;;;;;10.07;6.20;;;;;;;;;;5036197;28;20045;-67
2021/08/26 03:27:45;;;;;;;9.98;5.30;;;;;;;;;;5038263;28;20101;-68
2021/08/26 03:30:12;;;;;;;8.07;5.60;;;;;;;;;;5032917;28;20030;-68
2021/08/26 03:32:38;;;;;;;9.02;5.60;;;;;;;;;;5034371;28;20384;-68
2021/08/26 03:35:04;;;;;;;16.85;5.82;;;;;;;;;;5034827;28;20523;-68
2021/08/26 03:37:30;;;;;;;10.35;5.43;;;;;;;;;;5037073;28;20037;-68
2021/08/26 03:39:56;;;;;;;8.55;5.32;;;;;;;;;;5036743;28;20496;-68
2021/08/26 03:42:22;;;;;;;11.23;5.28;;;;;;;;;;5036270;28;20033;-67
2021/08/26 03:44:48;;;;;;;7.70;4.90;;;;;;;;;;5034864;28;20036;-66
2021/08/26 03:47:14;;;;;;;7.68;5.20;;;;;;;;;;5046926;28;20037;-67
2021/08/26 03:49:40;;;;;;;10.43;5.60;;;;;;;;;;5038859;28;20033;-68
2021/08/26 03:52:06;;;;;;;9.85;5.65;;;;;;;;;;5036156;28;20076;-68
2021/08/26 03:54:32;;;;;;;9.27;5.90;;;;;;;;;;5035428;28;20064;-67
2021/08/26 03:56:58;;;;;;;8.10;5.55;;;;;;;;;;5041819;28;20275;-68
2021/08/26 03:59:24;;;;;;;8.18;5.05;;;;;;;;;;5036634;28;20021;-67
2021/08/26 04:01:50;;;;;;;8.00;4.35;;;;;;;;;;5034441;28;20033;-67
2021/08/26 04:04:16;;;;;;;10.10;4.32;;;;;;;;;;5036625;28;20025;-67
2021/08/26 04:06:42;;;;;;;7.85;4.70;;;;;;;;;;5036249;28;20029;-67
2021/08/26 04:09:08;;;;;;;8.73;4.45;;;;;;;;;;5035304;28;20033;-67
2021/08/26 04:11:34;;;;;;;8.80;4.53;;;;;;;;;;5034664;28;20030;-67
2021/08/26 04:14:00;;;;;;;10.63;5.07;;;;;;;;;;5035922;28;20159;-67
2021/08/26 04:16:26;;;;;;;9.82;5.07;;;;;;;;;;5039773;28;20021;-68
2021/08/26 04:18:52;;;;;;;10.48;5.63;;;;;;;;;;5046932;28;20033;-67
2021/08/26 04:21:18;;;;;;;8.30;5.00;;;;;;;;;;5035929;28;20040;-67
2021/08/26 04:23:44;;;;;;;10.38;4.88;;;;;;;;;;5032679;28;20104;-68
2021/08/26 04:26:10;;;;;;;9.05;5.18;;;;;;;;;;5037228;28;20137;-68
2021/08/26 04:28:36;;;;;;;10.20;5.50;;;;;;;;;;5040757;28;20044;-67
2021/08/26 04:31:02;;;;;;;16.77;5.72;;;;;;;;;;5036003;28;20029;-67
2021/08/26 04:33:28;;;;;;;8.65;5.28;;;;;;;;;;5035536;28;20087;-68
2021/08/26 04:35:54;;;;;;;7.90;4.80;;;;;;;;;;5034147;28;20032;-67
2021/08/26 04:38:20;;;;;;;11.15;6.00;;;;;;;;;;5035623;28;20041;-67
2021/08/26 04:40:46;;;;;;;7.93;5.55;;;;;;;;;;5034915;28;20096;-67
2021/08/26 04:43:12;;;;;;;11.05;4.28;;;;;;;;;;5035158;28;20059;-67
2021/08/26 04:45:38;;;;;;;7.53;5.28;;;;;;;;;;5034713;28;20536;-68
2021/08/26 04:48:04;;;;;;;8.55;5.85;;;;;;;;;;5048301;28;20037;-67
2021/08/26 04:50:30;;;;;;;11.85;5.13;;;;;;;;;;5047558;28;20021;-68
2021/08/26 04:52:56;;;;;;;7.75;5.18;;;;;;;;;;5036952;28;20044;-67
2021/08/26 04:55:22;;;;;;;9.13;5.20;;;;;;;;;;5035457;28;20151;-67
2021/08/26 04:57:48;;;;;;;8.38;4.90;;;;;;;;;;5041219;28;20116;-68
2021/08/26 05:00:14;;;;;;;11.98;5.50;;;;;;;;;;5035476;28;20021;-68
2021/08/26 05:02:40;;;;;;;10.45;4.90;;;;;;;;;;5028501;28;20037;-67
2021/08/26 05:05:06;;;;;;;9.10;5.03;;;;;;;;;;5035420;28;20031;-68
2021/08/26 05:07:32;;;;;;;10.15;5.28;;;;;;;;;;5029337;28;20030;-68
2021/08/26 05:09:58;;;;;;;7.70;5.32;;;;;;;;;;5035230;28;20377;-68
2021/08/26 05:12:24;;;;;;;12.20;5.30;;;;;;;;;;5035139;28;20481;-68
2021/08/26 05:14:50;;;;;;;8.07;5.13;;;;;;;;;;5032243;28;20084;-68
2021/08/26 05:17:17;;;;;;;9.48;5.22;;;;;;;;;;5044133;28;20381;-68
2021/08/26 05:19:43;;;;;;;9.00;5.43;;;;;;;;;;5036995;28;20485;-68
2021/08/26 05:22:09;;;;;;;8.68;5.18;;;;;;;;;;5035174;28;20049;-70
2021/08/26 05:24:35;;;;;;;9.40;5.43;;;;;;;;;;5034851;28;20024;-70
2021/08/26 05:27:01;;;;;;;14.77;5.18;;;;;;;;;;5032208;28;20055;-71
2021/08/26 05:29:27;;;;;;;11.07;5.13;;;;;;;;;;5033686;28;20477;-68
2021/08/26 05:31:53;;;;;;;10.40;5.47;;;;;;;;;;5034311;28;20061;-67
2021/08/26 05:34:19;;;;;;;9.15;5.60;;;;;;;;;;5034562;28;20110;-68
2021/08/26 05:36:45;;;;;;;9.40;5.13;;;;;;;;;;5035046;28;20076;-69
2021/08/26 05:39:11;;;;;;;10.90;5.90;;;;;;;;;;5034868;28;20029;-69
2021/08/26 05:41:37;;;;;;;7.30;5.00;;;;;;;;;;5032517;28;20024;-69
2021/08/26 05:44:04;;;;;;;9.70;5.72;;;;;;;;;;5033993;28;20021;-69
2021/08/26 05:46:30;;;;;;;10.23;5.85;;;;;;;;;;5038366;28;20029;-70
2021/08/26 05:48:56;;;;;;;11.85;6.80;;;;;;;;;;5036481;28;20082;-67
2021/08/26 05:51:22;;;;;;;8.80;5.60;;;;;;;;;;5034810;28;20020;-70
2021/08/26 05:53:48;;;;;;;9.63;5.80;;;;;;;;;;5032235;28;20383;-70
2021/08/26 05:56:14;;;;;;;12.23;5.78;;;;;;;;;;5033803;28;20151;-68
2021/08/26 05:58:40;;;;;;;11.20;4.43;;;;;;;;;;5032327;28;20520;-68
2021/08/26 06:01:06;;;;;;;10.82;5.05;;;;;;;;;;5032671;28;20025;-72
2021/08/26 06:03:33;;;;;;;7.13;4.60;;;;;;;;;;5032553;28;20103;-70
2021/08/26 06:05:59;;;;;;;10.27;4.80;;;;;;;;;;5030987;28;20028;-70
2021/08/26 06:08:29;;;;;;;10.52;4.80;;;;;;;;;;5032404;28;20103;-71
2021/08/26 06:10:55;;;;;;;13.48;5.10;;;;;;;;;;5034393;28;20036;-71
2021/08/26 06:13:20;;;;;;;6.63;4.20;;;;;;;;;;5033702;28;20033;-70
2021/08/26 06:15:47;;;;;;;8.48;3.90;;;;;;;;;;5034161;28;20052;-71
2021/08/26 06:18:15;;;;;;;6.47;3.30;;;;;;;;;;5047790;28;20029;-71
2021/08/26 06:20:42;;;;;;;6.38;3.25;;;;;;;;;;5027498;28;20022;-69
2021/08/26 06:23:08;;;;;;;5.07;2.60;;;;;;;;;;5034152;28;20091;-69
2021/08/26 06:25:34;;;;;;;7.22;3.35;;;;;;;;;;5032021;28;20049;-65
2021/08/26 06:28:00;;;;;;;6.32;2.80;;;;;;;;;;5038009;28;20029;-66
2021/08/26 06:30:26;;;;;;;5.13;2.33;;;;;;;;;;5032258;28;20026;-66
2021/08/26 06:32:52;;;;;;;6.70;2.50;;;;;;;;;;5030557;28;20059;-69
2021/08/26 06:35:19;;;;;;;5.18;2.40;;;;;;;;;;5030656;28;20445;-68
2021/08/26 06:37:45;;;;;;;6.00;2.53;;;;;;;;;;5034112;28;20025;-68
2021/08/26 06:40:11;;;;;;;3.75;2.40;;;;;;;;;;5033092;28;20389;-68
2021/08/26 06:42:37;;;;;;;4.22;2.50;;;;;;;;;;5032565;28;20104;-68
2021/08/26 06:45:04;;;;;;;5.63;2.50;;;;;;;;;;5031731;28;20048;-69
2021/08/26 06:47:30;;;;;;;8.73;2.60;;;;;;;;;;5045027;28;20400;-68
2021/08/26 06:49:56;;;;;;;4.78;2.13;;;;;;;;;;5033984;28;20397;-68
2021/08/26 06:52:22;;;;;;;4.38;2.38;;;;;;;;;;5032039;28;20033;-68
2021/08/26 06:54:48;;;;;;;5.25;2.38;;;;;;;;;;5031929;28;20025;-68
2021/08/26 06:57:14;;;;;;;5.93;3.00;;;;;;;;;;5039035;28;20063;-70
2021/08/26 06:59:40;;;;;;;7.40;2.78;;;;;;;;;;5027273;28;20116;-69
2021/08/26 07:02:06;;;;;;;5.53;2.67;;;;;;;;;;5031451;28;20154;-68
2021/08/26 07:04:32;;;;;;;6.85;2.50;;;;;;;;;;5031934;28;20026;-68
2021/08/26 07:06:58;;;;;;;6.20;2.50;;;;;;;;;;5033652;28;20121;-68
2021/08/26 07:09:24;;;;;;;8.05;3.40;;;;;;;;;;5032204;28;20108;-69
2021/08/26 07:11:51;;;;;;;4.82;2.30;;;;;;;;;;5030717;28;20037;-69
2021/08/26 07:14:17;;;;;;;3.55;2.35;;;;;;;;;;5031733;28;20037;-67
2021/08/26 07:16:43;;;;;;;7.10;2.80;;;;;;;;;;5029894;28;20036;-69
2021/08/26 07:19:09;;;;;;;9.80;3.60;;;;;;;;;;5032027;28;20057;-67
2021/08/26 07:21:35;;;;;;;6.82;2.75;;;;;;;;;;5032095;28;20568;-67
2021/08/26 07:24:01;;;;;;;9.23;2.92;;;;;;;;;;5031213;28;20025;-68
2021/08/26 07:26:27;;;;;;;5.57;2.50;;;;;;;;;;5036460;28;20043;-68
2021/08/26 07:28:54;;;;;;;6.30;2.38;;;;;;;;;;5033889;28;20539;-67
2021/08/26 07:31:21;;;;;;;5.78;2.00;;;;;;;;;;5031960;28;20060;-67
2021/08/26 07:33:47;;;;;;;5.20;2.05;;;;;;;;;;5031983;28;20401;-67
2021/08/26 07:36:13;;;;;;;3.85;2.40;;;;;;;;;;5033050;28;20033;-67
2021/08/26 07:38:39;;;;;;;6.07;2.50;;;;;;;;;;5031215;28;20025;-66
2021/08/26 07:41:05;;;;;;;5.22;2.60;;;;;;;;;;5031413;28;20033;-67
2021/08/26 07:43:31;;;;;;;5.97;2.40;;;;;;;;;;5028665;28;20052;-67
2021/08/26 07:46:00;;;;;;;6.72;2.50;;;;;;;;;;5031167;28;20123;-67
2021/08/26 07:48:26;;;;;;;11.48;2.83;;;;;;;;;;5029859;28;20037;-67
2021/08/26 07:50:53;;;;;;;5.53;2.85;;;;;;;;;;5030113;28;20488;-67
2021/08/26 07:53:19;;;;;;;5.45;2.63;;;;;;;;;;5031489;28;20030;-67
2021/08/26 07:55:46;;;;;;;4.78;2.80;;;;;;;;;;5031385;28;20029;-68
2021/08/26 07:58:12;;;;;;;6.43;2.85;;;;;;;;;;5034417;28;20025;-68
2021/08/26 08:00:38;;;;;;;4.78;2.47;;;;;;;;;;5036068;28;20045;-70
2021/08/26 08:03:04;;;;;;;5.85;2.42;;;;;;;;;;5034854;28;20048;-67
2021/08/26 08:05:31;;;;;;;5.07;2.40;;;;;;;;;;5009544;28;20021;-67
2021/08/26 08:07:57;;;;;;;4.90;2.20;;;;;;;;;;5034460;28;20037;-67
2021/08/26 08:10:24;;;;;;;6.35;2.67;;;;;;;;;;5035465;28;20489;-67
2021/08/26 08:12:50;;;;;;;4.65;2.72;;;;;;;;;;5036584;28;20037;-67
2021/08/26 08:15:16;;;;;;;6.35;2.60;;;;;;;;;;5024649;28;20619;-68
2021/08/26 08:17:42;;;;;;;4.75;2.92;;;;;;;;;;5036402;28;20017;-68
2021/08/26 08:20:10;;;;;;;4.40;2.50;;;;;;;;;;5035943;28;20033;-68
2021/08/26 08:22:36;;;;;;;6.18;2.70;;;;;;;;;;5034394;28;20087;-67
2021/08/26 08:25:03;;;;;;;7.40;3.00;;;;;;;;;;5033530;28;20065;-67
2021/08/26 08:27:29;;;;;;;5.40;2.75;;;;;;;;;;5032280;28;20045;-68
2021/08/26 08:29:55;;;;;;;3.83;2.50;;;;;;;;;;5036118;28;20018;-67
2021/08/26 08:32:21;;;;;;;6.93;3.10;;;;;;;;;;5033318;28;20037;-67
2021/08/26 08:34:47;;;;;;;6.50;2.75;;;;;;;;;;5034414;28;20037;-66
2021/08/26 08:37:13;;;;;;;4.82;2.72;;;;;;;;;;5035226;28;20033;-67
2021/08/26 08:39:39;;;;;;;6.57;2.60;;;;;;;;;;5033910;28;20029;-66
2021/08/26 08:42:05;;;;;;;6.15;2.65;;;;;;;;;;5034084;28;20079;-67
2021/08/26 08:44:31;;;;;;;4.53;2.67;;;;;;;;;;5032469;28;20021;-67
2021/08/26 08:46:58;;;;;;;3.83;2.35;;;;;;;;;;5033188;28;20024;-67
2021/08/26 08:49:25;;;;;;;5.78;2.50;;;;;;;;;;5032527;28;20128;-67
2021/08/26 08:51:51;;;;;;;4.37;2.57;;;;;;;;;;5024328;28;20041;-68
2021/08/26 08:54:17;;;;;;;5.80;2.38;;;;;;;;;;5047432;28;20294;-67
2021/08/26 08:56:44;;;;;;;5.40;2.70;;;;;;;;;;5037658;28;20039;-68
2021/08/26 08:59:10;;;;;;;5.90;2.58;;;;;;;;;;5036268;28;20029;-66
2021/08/26 09:01:36;;;;;;;4.68;2.50;;;;;;;;;;5020818;28;20048;-68
2021/08/26 09:04:03;;;;;;;4.45;2.67;;;;;;;;;;5031955;28;20466;-69
2021/08/26 09:06:38;;;;;;;4.90;2.53;;;;;;;;;;5034870;28;20047;-69
2021/08/26 09:09:05;;;;;;;6.82;2.90;;;;;;;;;;5029826;28;20448;-69
2021/08/26 09:11:31;;;;;;;5.28;2.90;;;;;;;;;;5032615;28;20475;-69
2021/08/26 09:14:07;;;;;;;7.80;2.60;;;;;;;;;;5021800;28;20564;-68
2021/08/26 09:16:37;;;;;;;4.85;3.05;;;;;;;;;;5030418;28;20072;-70
2021/08/26 09:19:24;;;;;;;5.60;2.70;;;;;;;;;;5031385;28;20307;-69
2021/08/26 09:21:50;;;;;;;7.25;2.67;;;;;;;;;;5025651;28;20323;-69
2021/08/26 09:24:16;;;;;;;8.03;4.17;;;;;;;;;;5032409;28;20021;-69
2021/08/26 09:26:46;;;;;;;9.27;2.90;;;;;;;;;;5034803;28;20038;-70
2021/08/26 09:29:12;;;;;;;7.63;2.80;;;;;;;;;;5016776;28;20523;-70
2021/08/26 09:31:38;;;;;;;5.63;3.03;;;;;;;;;;5034104;28;20048;-71
2021/08/26 09:34:05;;;;;;;4.65;3.00;;;;;;;;;;5032432;28;20033;-72
2021/08/26 09:36:36;;;;;;;10.02;2.97;;;;;;;;;;5039216;28;20245;-70
2021/08/26 09:39:13;;;;;;;8.07;3.42;;;;;;;;;;5021337;28;20458;-70
2021/08/26 09:41:47;;;;;;;5.77;3.10;;;;;;;;;;5032638;28;20076;-71
2021/08/26 09:44:18;;;;;;;5.55;2.95;;;;;;;;;;5033715;28;20033;-71
2021/08/26 09:46:45;;;;;;;4.97;2.70;;;;;;;;;;5036599;28;20079;-71
2021/08/26 09:49:12;;;;;;;5.32;3.05;;;;;;;;;;5029135;28;20017;-71
2021/08/26 09:51:39;;;;;;;7.63;3.35;;;;;;;;;;5033077;28;20067;-71
2021/08/26 09:54:25;;;;;;;7.90;3.30;;;;;;;;;;5032180;28;20033;-71
2021/08/26 09:56:51;;;;;;;6.10;3.08;;;;;;;;;;5040148;28;20044;-71
2021/08/26 09:59:17;;;;;;;5.68;3.28;;;;;;;;;;5032999;28;20036;-71
2021/08/26 10:01:43;;;;;;;7.82;3.72;;;;;;;;;;5018460;28;20030;-70
2021/08/26 10:04:25;;;;;;;6.00;3.15;;;;;;;;;;5034270;28;20116;-70
2021/08/26 10:06:52;;;;;;;6.13;3.17;;;;;;;;;;5032861;28;20029;-70
2021/08/26 10:09:18;;;;;;;6.53;3.40;;;;;;;;;;5033081;28;20442;-70
2021/08/26 10:11:44;;;;;;;6.35;3.22;;;;;;;;;;5029813;28;20041;-70
2021/08/26 10:14:10;;;;;;;6.07;3.28;;;;;;;;;;5032361;28;20033;-70
2021/08/26 10:16:39;;;;;;;9.10;3.35;;;;;;;;;;5036201;28;20036;-71
2021/08/26 10:19:05;;;;;;;6.22;3.40;;;;;;;;;;5039132;28;20061;-70
2021/08/26 10:21:31;;;;;;;8.35;3.40;;;;;;;;;;5031499;28;20025;-70
2021/08/26 10:23:58;;;;;;;7.05;3.22;;;;;;;;;;5029683;28;20104;-71
2021/08/26 10:26:25;;;;;;;7.45;2.70;;;;;;;;;;5038598;28;20424;-73
2021/08/26 10:28:51;;;;;;;7.38;3.90;;;;;;;;;;5036545;28;20186;-70
2021/08/26 10:31:24;;;;;;;6.30;2.78;;;;;;;;;;5032295;28;20026;-72
2021/08/26 10:33:51;;;;;;;3.88;2.80;;;;;;;;;;5033190;28;20045;-71
2021/08/26 10:36:19;;;;;;;4.55;2.95;;;;;;;;;;5038452;28;20029;-72
2021/08/26 10:38:45;;;;;;;7.53;3.15;;;;;;;;;;5030228;28;20485;-72
2021/08/26 10:41:19;;;;;;;6.15;3.60;;;;;;;;;;5033313;28;20099;-70
2021/08/26 10:43:56;;;;;;;4.55;2.60;;;;;;;;;;5032619;28;20057;-72
2021/08/26 10:46:42;;;;;;;4.97;2.80;;;;;;;;;;5034087;28;20034;-71
2021/08/26 10:49:08;;;;;;;5.15;2.50;;;;;;;;;;5040736;28;20025;-73
2021/08/26 10:51:44;;;;;;;6.13;2.78;;;;;;;;;;5033473;28;20071;-72
2021/08/26 10:54:23;;;;;;;5.32;2.78;;;;;;;;;;5031035;28;20090;-73
2021/08/26 10:56:49;;;;;;;6.13;2.72;;;;;;;;;;5039369;28;20070;-73
2021/08/26 10:59:26;;;;;;;4.50;2.95;;;;;;;;;;5032087;28;20025;-73
2021/08/26 11:01:52;;;;;;;4.55;2.60;;;;;;;;;;5033518;28;20083;-72
2021/08/26 11:04:27;;;;;;;6.20;2.97;;;;;;;;;;5035689;28;20790;-74
2021/08/26 11:06:53;;;;;;;4.97;2.88;;;;;;;;;;5037172;28;20546;-71
2021/08/26 11:09:30;;;;;;;5.45;3.00;;;;;;;;;;5030944;28;20484;-74
2021/08/26 11:12:03;;;;;;;4.68;2.72;;;;;;;;;;5031069;28;20032;-70
2021/08/26 11:14:30;;;;;;;5.75;2.90;;;;;;;;;;5029332;28;20033;-72
2021/08/26 11:16:59;;;;;;;4.65;2.60;;;;;;;;;;5036966;28;20179;-72
2021/08/26 11:19:25;;;;;;;4.85;2.65;;;;;;;;;;5038382;28;20030;-72
2021/08/26 11:21:51;;;;;;;4.55;2.72;;;;;;;;;;5032711;28;20030;-71
2021/08/26 11:24:20;;;;;;;5.53;2.70;;;;;;;;;;5033266;28;20365;-70
2021/08/26 11:26:53;;;;;;;5.20;3.03;;;;;;;;;;5042907;28;20073;-74
2021/08/26 11:29:23;;;;;;;6.75;3.00;;;;;;;;;;5032348;28;20029;-68
2021/08/26 11:31:54;;;;;;;7.60;3.13;;;;;;;;;;5034227;28;20022;-69
2021/08/26 11:34:21;;;;;;;10.05;4.25;;;;;;;;;;5036687;28;20532;-69
2021/08/26 11:36:56;;;;;;;7.38;3.00;;;;;;;;;;5040876;28;20022;-69
2021/08/26 11:39:22;;;;;;;4.60;2.58;;;;;;;;;;5036785;28;20472;-69
2021/08/26 11:41:48;;;;;;;5.28;2.80;;;;;;;;;;5034245;28;20033;-69
2021/08/26 11:44:15;;;;;;;5.78;2.85;;;;;;;;;;5034448;28;20080;-69
2021/08/26 11:46:41;;;;;;;5.78;3.30;;;;;;;;;;5031395;28;20022;-69
2021/08/26 11:49:07;;;;;;;5.95;3.03;;;;;;;;;;5026583;28;20038;-69
2021/08/26 11:51:33;;;;;;;5.68;2.97;;;;;;;;;;5035944;28;20035;-69
2021/08/26 11:54:14;;;;;;;7.32;3.47;;;;;;;;;;5035095;28;20045;-69
2021/08/26 11:56:43;;;;;;;7.63;3.30;;;;;;;;;;5029524;28;20559;-69
2021/08/26 11:59:29;;;;;;;5.68;2.97;;;;;;;;;;5035020;28;20125;-69
2021/08/26 12:02:13;;;;;;;8.60;3.28;;;;;;;;;;5036188;28;20563;-68
2021/08/26 12:04:39;;;;;;;4.85;2.92;;;;;;;;;;5036589;28;20488;-68
2021/08/26 12:07:05;;;;;;;8.30;3.28;;;;;;;;;;5032477;28;20029;-69
2021/08/26 12:09:31;;;;;;;4.85;2.97;;;;;;;;;;5030660;28;20404;-69
2021/08/26 12:12:07;;;;;;;7.20;3.00;;;;;;;;;;5033860;28;20032;-69
2021/08/26 12:14:36;;;;;;;6.00;3.20;;;;;;;;;;5033454;28;20053;-69
2021/08/26 12:17:11;;;;;;;8.57;3.22;;;;;;;;;;5025981;28;20040;-67
2021/08/26 12:19:37;;;;;;;5.75;2.97;;;;;;;;;;5038261;28;20037;-67
2021/08/26 12:22:03;;;;;;;5.55;2.75;;;;;;;;;;5042946;28;20421;-68
2021/08/26 12:24:29;;;;;;;6.95;3.00;;;;;;;;;;5035710;28;20507;-68
2021/08/26 12:26:55;;;;;;;6.38;3.28;;;;;;;;;;5027287;28;20038;-68
2021/08/26 12:29:23;;;;;;;5.60;3.20;;;;;;;;;;5030641;28;20333;-67
2021/08/26 12:31:49;;;;;;;5.70;3.33;;;;;;;;;;5035205;28;20480;-68
2021/08/26 12:34:15;;;;;;;5.43;3.22;;;;;;;;;;5032214;28;20038;-68
2021/08/26 12:36:42;;;;;;;6.13;2.95;;;;;;;;;;5029542;28;20029;-67
2021/08/26 12:39:18;;;;;;;7.03;3.30;;;;;;;;;;5033437;28;20047;-67
2021/08/26 12:41:44;;;;;;;6.88;3.15;;;;;;;;;;5029666;28;20556;-67
2021/08/26 12:44:25;;;;;;;5.43;3.03;;;;;;;;;;5033641;28;20115;-67
2021/08/26 12:46:53;;;;;;;5.15;3.15;;;;;;;;;;5033557;28;20027;-66
2021/08/26 12:49:19;;;;;;;5.38;3.08;;;;;;;;;;5043756;28;20029;-67
2021/08/26 12:51:56;;;;;;;4.22;3.00;;;;;;;;;;5046192;28;20528;-66
2021/08/26 12:54:22;;;;;;;4.40;2.92;;;;;;;;;;5010548;28;20025;-67
2021/08/26 12:56:51;;;;;;;7.90;3.30;;;;;;;;;;5026716;28;20469;-68
2021/08/26 12:59:17;;;;;;;5.32;3.22;;;;;;;;;;5036186;28;20427;-67
2021/08/26 13:01:45;;;;;;;6.07;3.22;;;;;;;;;;5037559;28;20029;-66
2021/08/26 13:04:15;;;;;;;5.75;3.20;;;;;;;;;;5025489;28;20091;-67
2021/08/26 13:06:46;;;;;;;5.82;3.20;;;;;;;;;;5031959;28;20536;-67
2021/08/26 13:09:12;;;;;;;5.35;3.17;;;;;;;;;;5034766;28;20539;-67
2021/08/26 13:11:40;;;;;;;6.65;3.10;;;;;;;;;;5033456;28;20109;-68
2021/08/26 13:14:07;;;;;;;;;;;;;;;;;;5027826;28;20043;-68
2021/08/26 13:16:33;;;;;;;5.70;3.40;;;;;;;;;;5026008;28;19909;-69
2021/08/26 13:18:59;;;;;;;6.55;3.30;;;;;;;;;;5025592;28;20018;-67
2021/08/26 13:21:25;;;;;;;6.43;3.33;;;;;;;;;;5048710;28;20473;-68
2021/08/26 13:23:51;;;;;;;12.13;4.45;;;;;;;;;;5021897;28;20037;-69
2021/08/26 13:26:17;;;;;;;6.15;3.53;;;;;;;;;;5030842;28;20484;-67
2021/08/26 13:28:43;;;;;;;4.97;3.17;;;;;;;;;;5031505;28;20069;-69
2021/08/26 13:31:09;;;;;;;7.10;3.28;;;;;;;;;;5033971;28;20022;-68
2021/08/26 13:33:35;;;;;;;6.30;3.00;;;;;;;;;;5032917;28;20045;-68
2021/08/26 13:36:01;;;;;;;6.13;2.80;;;;;;;;;;5031919;28;20024;-69
2021/08/26 13:38:27;;;;;;;8.57;3.22;;;;;;;;;;5030923;28;20036;-67
2021/08/26 13:40:54;;;;;;;8.00;3.67;;;;;;;;;;5033469;28;20021;-67
2021/08/26 13:43:20;;;;;;;6.15;3.53;;;;;;;;;;5034807;28;20428;-67
2021/08/26 13:45:46;;;;;;;6.05;3.40;;;;;;;;;;5024443;28;20099;-68
2021/08/26 13:48:12;;;;;;;8.10;3.35;;;;;;;;;;5019570;28;20034;-66
2021/08/26 13:50:38;;;;;;;5.70;3.10;;;;;;;;;;5032463;28;20025;-67
2021/08/26 13:53:04;;;;;;;4.95;3.17;;;;;;;;;;5032503;28;20491;-68
2021/08/26 13:55:33;;;;;;;7.68;3.60;;;;;;;;;;5022970;28;20476;-68
2021/08/26 13:58:00;;;;;;;4.90;3.17;;;;;;;;;;5028509;28;20033;-67
2021/08/26 14:00:28;;;;;;;6.95;3.50;;;;;;;;;;5033873;28;20380;-67
2021/08/26 14:02:55;;;;;;;6.85;3.47;;;;;;;;;;5032092;28;20071;-67
2021/08/26 14:05:21;;;;;;;6.33;3.57;;;;;;;;;;5033608;28;20457;-67
2021/08/26 14:07:47;;;;;;;7.07;3.42;;;;;;;;;;5030328;28;20270;-67
2021/08/26 14:10:13;;;;;;;8.15;3.45;;;;;;;;;;5034194;28;20103;-67
2021/08/26 14:12:39;;;;;;;10.25;3.97;;;;;;;;;;5032070;28;20495;-67
2021/08/26 14:15:06;;;;;;;10.38;3.65;;;;;;;;;;5031396;28;20037;-67
2021/08/26 14:17:32;;;;;;;7.50;3.38;;;;;;;;;;5018733;28;20022;-67
2021/08/26 14:19:58;;;;;;;7.72;3.38;;;;;;;;;;5030363;28;20033;-66
2021/08/26 14:22:24;;;;;;;6.60;3.50;;;;;;;;;;5031393;28;20048;-67
2021/08/26 14:24:50;;;;;;;5.50;3.30;;;;;;;;;;5030369;28;20026;-67
2021/08/26 14:27:16;;;;;;;10.88;3.50;;;;;;;;;;5026543;28;20045;-67
2021/08/26 14:29:43;;;;;;;5.97;3.38;;;;;;;;;;5030389;28;20022;-67
2021/08/26 14:32:09;;;;;;;4.47;3.28;;;;;;;;;;5030068;28;20061;-67
2021/08/26 14:34:35;;;;;;;4.93;2.90;;;;;;;;;;5033251;28;20029;-67
2021/08/26 14:37:01;;;;;;;10.85;3.50;;;;;;;;;;5027533;28;20477;-67
2021/08/26 14:39:27;;;;;;;5.10;3.25;;;;;;;;;;5032312;28;20043;-67
2021/08/26 14:41:53;;;;;;;5.60;3.63;;;;;;;;;;5031596;28;20052;-67
2021/08/26 14:44:19;;;;;;;5.15;3.28;;;;;;;;;;5032521;28;20081;-67
2021/08/26 14:46:45;;;;;;;7.45;3.30;;;;;;;;;;5027226;28;20030;-67